Leyendecker II PSRC

Jan. 22, 2020, 4:40 p.m.

  • imperial
Air Temperature RH Dewpoint Wind Chill Heat Index Wind Speed Wind Direction Precipitation Solar Radiation Soil Temperature
Date Time Max Mean Mean Total Total
US/Mountain F % F F F MPH MPH MPH deg. deg. in. MJ/m^2 F
2020-01-21 16:40 45.28 91.3 42.9 45.28 45.28 2.06 3.13 2.55 11.3 111.5 0.0 0.005 45.48
2020-01-21 16:45 45.41 91.2 42.99 45.41 45.41 2.59 2.77 2.06 14.2 138.4 0.0 0.005 45.5
2020-01-21 16:50 45.48 91.4 43.12 45.48 45.48 1.88 2.59 1.97 11.2 137.2 0.0 0.005 45.5
2020-01-21 16:55 45.54 91.6 43.23 45.54 45.54 1.7 1.88 1.7 15.9 165.0 0.0 0.004 45.5
2020-01-21 17:00 45.41 91.5 43.08 45.41 45.41 0.81 1.88 0.78 11.6 200.8 0.0 0.004 45.52
2020-01-21 17:05 45.41 91.6 43.11 45.41 45.41 0.0 2.06 0.74 10.6 190.3 0.0 0.004 45.54
2020-01-21 17:10 45.54 91.5 43.2 45.54 45.54 0.0 0.0 0.0 0.0 0.0 0.0 0.004 45.52
2020-01-21 17:15 45.48 92.0 43.29 45.48 45.48 0.0 0.0 0.0 0.0 0.0 0.0 0.002 45.54
2020-01-21 17:20 45.54 92.4 43.46 45.54 45.54 0.98 1.34 0.47 2.5 52.5 0.0 0.001 45.54
2020-01-21 17:25 45.54 92.4 43.46 45.54 45.54 1.52 1.88 0.65 2.7 52.7 0.0 0.001 45.54
2020-01-21 17:30 45.54 93.9 43.88 45.54 45.54 1.52 1.7 1.3 11.4 72.8 0.0 0.0 45.54
2020-01-21 17:35 45.41 93.9 43.76 45.41 45.41 0.0 1.16 0.25 1.7 88.4 0.0 0.0 45.54
2020-01-21 17:40 45.48 93.5 43.72 45.48 45.48 0.0 0.0 0.0 0.0 0.0 0.0 0.0 45.54
2020-01-21 17:45 45.41 93.9 43.76 45.41 45.41 1.16 1.16 0.27 4.0 150.5 0.0 0.0 45.54
2020-01-21 17:50 45.28 92.8 43.32 45.28 45.28 1.88 2.06 1.54 13.3 178.9 0.0 0.0 45.55
2020-01-21 17:55 45.48 92.8 43.52 45.48 45.48 1.34 2.06 1.54 17.2 207.8 0.0 0.0 45.55
2020-01-21 18:00 45.23 93.5 43.47 45.23 45.23 1.34 1.7 1.36 11.7 238.2 0.0 0.0 45.55
2020-01-21 18:05 45.23 93.3 43.41 45.23 45.23 0.0 1.16 0.47 13.7 246.8 0.0 0.0 45.55
2020-01-21 18:10 45.18 92.9 43.24 45.18 45.18 0.0 0.0 0.0 0.0 0.0 0.0 0.0 45.55
2020-01-21 18:15 45.23 94.6 43.77 45.23 45.23 1.52 2.42 1.48 15.4 11.2 0.0 0.0 45.55
2020-01-21 18:20 45.18 95.4 43.94 45.18 45.18 0.0 1.7 0.58 10.5 65.8 0.0 0.0 45.55
2020-01-21 18:25 45.18 94.7 43.75 45.18 45.18 1.52 2.95 1.72 7.2 34.0 0.0 0.0 45.55
2020-01-21 18:30 45.23 94.1 43.63 44.12 45.23 3.13 3.13 1.16 40.5 199.3 0.0 0.0 45.55
2020-01-21 18:35 45.18 95.0 43.83 45.18 45.18 2.06 3.49 2.71 10.1 212.9 0.0 0.0 45.55
2020-01-21 18:40 45.23 94.9 43.86 45.23 45.23 1.52 2.06 1.28 64.1 68.7 0.0 0.0 45.55
2020-01-21 18:45 45.1 95.6 43.92 45.1 45.1 2.24 2.42 2.1 9.3 64.8 0.0 0.0 45.55
2020-01-21 18:50 44.85 95.7 43.7 44.85 44.85 2.59 3.49 2.35 18.9 90.4 0.0 0.0 45.55
2020-01-21 18:55 44.85 94.8 43.45 44.85 44.85 2.59 2.77 2.37 8.2 138.9 0.0 0.0 45.55
2020-01-21 19:00 44.85 94.2 43.29 43.69 44.85 3.13 3.13 2.06 20.0 166.3 0.0 0.0 45.55
2020-01-21 19:05 44.49 95.4 43.26 44.49 44.49 1.88 4.21 3.2 9.5 207.8 0.0 0.0 45.55
2020-01-21 19:10 44.37 95.4 43.13 44.37 44.37 2.42 2.95 1.74 71.0 4.3 0.0 0.0 45.55
2020-01-21 19:15 44.31 95.6 43.13 44.31 44.31 0.0 2.42 1.74 4.9 30.2 0.0 0.0 45.57
2020-01-21 19:20 43.93 96.2 42.92 41.82 43.93 4.03 4.03 2.37 6.4 33.5 0.0 0.0 45.55
2020-01-21 19:25 44.06 96.8 43.21 44.06 44.06 0.98 4.21 2.66 30.5 61.5 0.0 0.0 45.55
2020-01-21 19:30 44.19 96.2 43.17 44.19 44.19 0.81 3.49 2.42 29.5 204.2 0.0 0.0 45.54
2020-01-21 19:35 44.06 95.6 42.88 44.06 44.06 2.59 2.59 0.72 5.7 30.8 0.0 0.0 45.55
2020-01-21 19:40 43.7 96.7 42.82 43.7 43.7 1.52 2.59 1.34 25.9 77.4 0.0 0.0 45.55
2020-01-21 19:45 43.75 96.9 42.93 43.75 43.75 1.7 2.95 2.24 18.7 202.2 0.0 0.0 45.55
2020-01-21 19:50 43.7 96.8 42.85 43.7 43.7 1.7 2.24 1.83 5.9 239.3 0.0 0.0 45.54
2020-01-21 19:55 43.32 96.6 42.42 43.32 43.32 0.0 1.7 0.51 3.3 241.6 0.0 0.0 45.54
2020-01-21 20:00 43.02 96.2 42.01 43.02 43.02 0.0 0.0 0.0 0.0 0.0 0.0 0.0 45.52
2020-01-21 20:05 42.78 97.0 41.99 42.78 42.78 0.0 0.0 0.0 0.0 0.0 0.0 0.0 45.5
2020-01-21 20:10 42.66 97.9 42.1 42.66 42.66 0.98 1.34 0.6 8.2 198.4 0.0 0.0 45.5
2020-01-21 20:15 42.6 98.1 42.1 42.6 42.6 1.52 1.88 0.81 11.4 217.8 0.0 0.0 45.5
2020-01-21 20:20 42.48 98.5 42.08 42.48 42.48 0.98 1.88 1.34 12.0 205.9 0.0 0.0 45.52
2020-01-21 20:25 42.3 98.2 41.82 42.3 42.3 0.0 0.98 0.16 5.4 197.4 0.0 0.0 45.5
2020-01-21 20:30 41.92 97.6 41.29 41.92 41.92 0.0 0.0 0.0 0.0 0.0 0.0 0.0 45.48
2020-01-21 20:35 41.63 98.0 41.11 41.63 41.63 0.98 0.98 0.22 5.3 68.6 0.0 0.0 45.48
2020-01-21 20:40 41.63 98.3 41.19 41.63 41.63 0.0 0.81 0.13 0.1 98.4 0.0 0.0 45.48
2020-01-21 20:45 41.68 98.6 41.32 41.68 41.68 1.16 1.16 0.2 1.0 41.8 0.0 0.0 45.45
2020-01-21 20:50 41.76 99.0 41.5 41.76 41.76 2.06 2.06 1.39 14.4 72.3 0.0 0.0 45.45
2020-01-21 20:55 42.24 99.6 42.14 42.24 42.24 2.95 3.13 2.19 8.7 75.8 0.0 0.0 45.45
2020-01-21 21:00 42.06 99.4 41.91 42.06 42.06 1.16 3.85 2.06 62.0 177.2 0.0 0.0 45.41
2020-01-21 21:05 42.6 99.3 42.42 42.6 42.6 1.34 2.06 1.16 19.3 134.9 0.0 0.0 45.41
2020-01-21 21:10 42.55 98.8 42.23 42.55 42.55 0.0 1.34 0.76 15.7 102.4 0.0 0.0 45.37
2020-01-21 21:15 41.99 98.4 41.57 41.99 41.99 1.34 2.42 1.43 18.2 214.3 0.0 0.0 45.37
2020-01-21 21:20 42.24 98.6 41.88 40.19 42.24 3.67 3.67 2.24 18.4 219.7 0.0 0.0 45.37
2020-01-21 21:25 41.76 97.9 41.21 41.76 41.76 2.06 4.21 3.04 17.2 145.6 0.0 0.0 45.34
2020-01-21 21:30 41.38 98.4 40.96 41.38 41.38 1.52 2.42 0.89 47.6 87.4 0.0 0.0 45.34
2020-01-21 21:35 41.07 98.5 40.68 41.07 41.07 2.06 2.24 1.5 65.3 319.7 0.0 0.0 45.32
2020-01-21 21:40 40.96 99.2 40.76 40.96 40.96 1.88 3.13 1.88 63.7 215.6 0.0 0.0 45.3
2020-01-21 21:45 40.89 99.1 40.66 40.89 40.89 2.06 2.95 1.48 47.5 56.4 0.0 0.0 45.3
2020-01-21 21:50 41.76 100.0 41.76 41.76 41.76 1.52 4.92 2.82 87.5 230.6 0.0 0.0 45.27
2020-01-21 21:55 41.88 99.3 41.7 41.88 41.88 1.52 2.59 1.28 41.6 153.2 0.0 0.0 45.25
2020-01-21 22:00 41.76 98.5 41.36 41.76 41.76 2.59 2.59 1.72 34.6 165.0 0.0 0.0 45.23
2020-01-21 22:05 41.14 98.0 40.62 41.14 41.14 0.0 2.59 1.66 39.8 232.0 0.0 0.0 45.23
2020-01-21 22:10 40.35 97.6 39.73 40.35 40.35 2.95 3.67 1.36 8.3 23.8 0.0 0.0 45.21
2020-01-21 22:15 40.05 98.7 39.71 40.05 40.05 0.0 3.13 1.57 13.4 44.9 0.0 0.0 45.19
2020-01-21 22:20 39.56 98.0 39.04 39.56 39.56 1.34 1.34 0.69 68.5 72.7 0.0 0.0 45.16
2020-01-21 22:25 39.79 99.2 39.59 39.79 39.79 1.16 1.16 0.63 7.6 149.1 0.0 0.0 45.16
2020-01-21 22:30 39.36 98.4 38.95 37.06 39.36 3.49 3.67 1.72 25.3 171.7 0.0 0.0 45.14
2020-01-21 22:35 40.23 100.0 40.23 40.23 40.23 2.42 4.38 3.42 7.6 218.3 0.0 0.0 45.1
2020-01-21 22:40 40.53 100.0 40.53 40.53 40.53 2.59 3.31 2.68 9.0 215.7 0.0 0.0 45.09
2020-01-21 22:45 40.78 100.0 40.78 40.78 40.78 2.42 3.13 2.64 12.4 190.0 0.0 0.0 45.09
2020-01-21 22:50 40.78 100.0 40.78 39.08 40.78 3.13 3.49 2.46 19.1 183.6 0.0 0.0 45.05
2020-01-21 22:55 40.35 99.8 40.3 40.35 40.35 2.42 2.95 2.59 8.0 131.8 0.0 0.0 45.03
2020-01-21 23:00 40.17 100.0 40.17 40.17 40.17 2.42 2.59 2.06 28.3 165.9 0.0 0.0 45.01
2020-01-21 23:05 40.78 100.0 40.78 40.78 40.78 2.06 2.42 1.92 8.9 222.0 0.0 0.0 45.01
2020-01-21 23:10 40.53 100.0 40.53 40.53 40.53 2.06 2.42 1.99 16.0 204.9 0.0 0.0 44.98
2020-01-21 23:15 40.41 100.0 40.41 40.41 40.41 1.88 2.77 2.04 14.8 174.7 0.0 0.0 44.96
2020-01-21 23:20 40.41 100.0 40.41 40.41 40.41 1.7 2.24 1.81 5.9 161.4 0.0 0.0 44.96
2020-01-21 23:25 40.17 100.0 40.17 40.17 40.17 2.77 2.77 2.06 8.4 152.1 0.0 0.0 44.94
2020-01-21 23:30 38.64 97.4 37.97 38.64 38.64 2.95 3.49 2.57 71.7 102.7 0.0 0.0 44.91
2020-01-21 23:35 39.31 100.0 39.31 39.31 39.31 1.88 2.77 2.13 54.6 52.5 0.0 0.0 44.91
2020-01-21 23:40 39.18 99.9 39.16 39.18 39.18 0.98 3.67 2.53 21.7 115.1 0.0 0.0 44.91
2020-01-21 23:45 39.36 99.9 39.34 39.36 39.36 2.42 2.77 1.3 12.2 74.2 0.0 0.0 44.89
2020-01-21 23:50 39.0 100.0 39.0 37.05 39.0 3.13 3.49 2.75 41.4 113.1 0.0 0.0 44.87
2020-01-21 23:55 38.39 99.9 38.36 38.39 38.39 0.0 5.28 2.44 31.5 257.7 0.0 0.0 44.85
2020-01-22 00:00 38.52 99.9 38.49 38.52 38.52 1.52 2.77 1.39 6.2 241.8 0.0 0.0 44.83
2020-01-22 00:05 38.82 99.9 38.8 38.82 38.82 1.34 1.52 0.65 8.3 240.2 0.0 0.0 44.82
2020-01-22 00:10 38.26 99.9 38.24 38.26 38.26 0.0 1.34 0.47 9.1 197.2 0.0 0.0 44.8
2020-01-22 00:15 37.9 100.0 37.9 37.9 37.9 0.81 0.81 0.02 0.0 120.9 0.0 0.0 44.78
2020-01-22 00:20 37.6 100.0 37.6 37.6 37.6 1.88 1.88 1.59 27.3 135.7 0.0 0.0 44.76
2020-01-22 00:25 37.65 100.0 37.65 35.31 37.65 3.31 4.03 3.04 18.8 217.6 0.0 0.0 44.74
2020-01-22 00:30 37.83 100.0 37.83 37.83 37.83 2.24 3.85 3.27 5.8 207.3 0.0 0.0 44.73
2020-01-22 00:35 37.65 100.0 37.65 37.65 37.65 2.42 2.95 2.46 16.2 159.2 0.0 0.0 44.73
2020-01-22 00:40 37.04 100.0 37.04 37.04 37.04 0.81 2.42 1.54 36.3 140.2 0.0 0.0 44.69
2020-01-22 00:45 36.81 100.0 36.81 36.81 36.81 1.7 2.06 1.52 12.4 142.2 0.0 0.0 44.69
2020-01-22 00:50 36.86 100.0 36.86 36.86 36.86 0.0 1.7 1.25 15.9 158.8 0.0 0.0 44.67
2020-01-22 00:55 36.07 100.0 36.07 36.07 36.07 0.0 1.88 0.96 9.0 323.1 0.0 0.0 44.65
2020-01-22 01:00 36.25 100.0 36.25 36.25 36.25 1.88 1.88 1.1 51.7 151.3 0.0 0.0 44.64
2020-01-22 01:05 36.07 100.0 36.07 36.07 36.07 0.0 2.06 0.74 28.5 320.9 0.0 0.0 44.62
2020-01-22 01:10 36.14 100.0 36.14 36.14 36.14 0.0 0.81 0.09 0.1 234.3 0.0 0.0 44.62
2020-01-22 01:15 35.76 100.0 35.76 35.76 35.76 1.34 3.67 1.97 15.2 61.3 0.0 0.0 44.58
2020-01-22 01:20 36.01 100.0 36.01 36.01 36.01 2.06 2.42 1.74 26.7 133.3 0.0 0.0 44.58
2020-01-22 01:25 36.57 100.0 36.57 36.57 36.57 2.42 2.42 1.68 15.6 148.3 0.0 0.0 44.55
2020-01-22 01:30 36.99 100.0 36.99 36.99 36.99 1.52 2.95 2.21 14.7 173.2 0.0 0.0 44.55
2020-01-22 01:35 36.63 100.0 36.63 36.63 36.63 0.0 1.16 0.07 3.1 222.5 0.0 0.0 44.53
2020-01-22 01:40 36.37 100.0 36.37 36.37 36.37 0.81 0.81 0.02 0.0 267.7 0.0 0.0 44.53
2020-01-22 01:45 35.65 100.0 35.65 35.65 35.65 0.98 2.06 1.54 11.0 306.9 0.0 0.0 44.53
2020-01-22 01:50 35.28 100.0 35.28 35.28 35.28 0.0 0.0 0.0 0.0 0.0 0.0 0.0 44.51
2020-01-22 01:55 35.15 100.0 35.15 35.15 35.15 0.0 0.0 0.0 0.0 0.0 0.0 0.0 44.49
2020-01-22 02:00 35.28 100.0 35.28 35.28 35.28 1.88 2.06 0.81 3.3 174.3 0.0 0.0 44.47
2020-01-22 02:05 35.65 100.0 35.65 35.65 35.65 0.0 2.59 1.77 13.5 176.3 0.0 0.0 44.46
2020-01-22 02:10 35.78 100.0 35.78 35.78 35.78 1.52 2.59 0.85 7.1 104.9 0.0 0.0 44.46
2020-01-22 02:15 35.71 100.0 35.71 35.71 35.71 2.42 3.67 1.81 32.1 71.4 0.0 0.0 44.44
2020-01-22 02:20 36.5 100.0 36.5 36.5 36.5 1.34 3.13 2.08 63.4 183.5 0.0 0.0 44.42
2020-01-22 02:25 36.81 100.0 36.81 36.81 36.81 1.34 1.88 0.83 28.5 128.2 0.0 0.0 44.42
2020-01-22 02:30 36.99 100.0 36.99 36.99 36.99 1.7 2.24 1.25 38.3 199.4 0.0 0.0 44.4
2020-01-22 02:35 37.49 100.0 37.49 37.49 37.49 2.42 2.59 1.52 38.8 186.7 0.0 0.0 44.38
2020-01-22 02:40 37.42 100.0 37.42 37.42 37.42 1.88 2.24 0.76 53.8 52.5 0.0 0.0 44.38
2020-01-22 02:45 37.62 100.0 37.62 37.62 37.62 0.0 2.06 1.07 36.9 85.9 0.0 0.0 44.37
2020-01-22 02:50 37.54 100.0 37.54 37.54 37.54 1.16 3.13 1.5 40.1 98.9 0.0 0.0 44.35
2020-01-22 02:55 36.81 100.0 36.81 36.81 36.81 1.88 2.06 0.74 50.3 32.9 0.0 0.0 44.35
2020-01-22 03:00 36.93 100.0 36.93 36.93 36.93 0.0 2.95 1.59 10.7 92.5 0.0 0.0 44.33
2020-01-22 03:05 36.75 100.0 36.75 36.75 36.75 0.98 2.59 0.87 15.1 179.9 0.0 0.0 44.31
2020-01-22 03:10 36.99 100.0 36.99 34.76 36.99 3.13 4.03 2.91 17.9 170.1 0.0 0.0 44.31
2020-01-22 03:15 37.42 100.0 37.42 37.42 37.42 1.16 3.67 2.68 19.7 165.5 0.0 0.0 44.31
2020-01-22 03:20 37.36 100.0 37.36 35.19 37.36 3.13 3.67 1.86 32.2 12.5 0.0 0.0 44.28
2020-01-22 03:25 37.29 100.0 37.29 37.29 37.29 1.34 3.13 1.41 43.0 304.6 0.0 0.0 44.28
2020-01-22 03:30 37.06 100.0 37.06 37.06 37.06 2.24 3.85 1.88 54.5 244.3 0.0 0.0 44.28
2020-01-22 03:35 36.88 100.0 36.88 36.88 36.88 2.59 3.85 2.28 10.0 209.2 0.0 0.0 44.26
2020-01-22 03:40 36.88 100.0 36.88 36.88 36.88 0.0 2.77 1.88 37.0 151.3 0.0 0.0 44.26
2020-01-22 03:45 36.45 100.0 36.45 36.45 36.45 2.24 2.77 1.86 13.0 110.8 0.0 0.0 44.24
2020-01-22 03:50 36.27 100.0 36.27 36.27 36.27 2.95 3.49 2.82 8.5 130.4 0.0 0.0 44.22
2020-01-22 03:55 36.07 100.0 36.07 36.07 36.07 0.0 2.59 1.36 19.2 131.6 0.0 0.0 44.2
2020-01-22 04:00 36.63 100.0 36.63 36.63 36.63 2.06 2.24 1.34 14.7 160.3 0.0 0.0 44.2
2020-01-22 04:05 37.18 100.0 37.18 37.18 37.18 2.59 2.59 2.04 10.0 162.9 0.0 0.0 44.19
2020-01-22 04:10 37.29 100.0 37.29 37.29 37.29 0.0 2.95 2.04 11.5 152.0 0.0 0.0 44.19
2020-01-22 04:15 37.49 100.0 37.49 37.49 37.49 2.59 2.59 1.59 6.5 136.1 0.0 0.0 44.17
2020-01-22 04:20 37.49 100.0 37.49 37.49 37.49 1.52 3.85 2.35 20.0 126.7 0.0 0.0 44.15
2020-01-22 04:25 37.24 100.0 37.24 37.24 37.24 2.59 2.59 1.23 27.0 83.7 0.0 0.0 44.15
2020-01-22 04:30 37.42 100.0 37.42 37.42 37.42 2.42 3.85 2.64 18.6 124.6 0.0 0.0 44.13
2020-01-22 04:35 37.24 100.0 37.24 34.63 37.24 3.49 3.49 1.12 22.4 122.9 0.0 0.0 44.13
2020-01-22 04:40 37.24 100.0 37.24 37.24 37.24 2.06 4.56 2.75 66.9 123.9 0.0 0.0 44.11
2020-01-22 04:45 37.47 100.0 37.47 35.32 37.47 3.13 4.03 2.66 59.7 88.4 0.0 0.0 44.11
2020-01-22 04:50 37.47 100.0 37.47 32.24 37.47 6.71 6.71 3.42 10.3 113.3 0.0 0.0 44.1
2020-01-22 04:55 37.54 100.0 37.54 37.54 37.54 0.0 6.89 3.2 89.5 169.0 0.0 0.0 44.1
2020-01-22 05:00 37.85 100.0 37.85 37.85 37.85 2.77 2.77 1.5 13.9 154.3 0.0 0.0 44.08
2020-01-22 05:05 37.9 100.0 37.9 37.9 37.9 2.77 3.67 2.73 9.2 173.7 0.0 0.0 44.08
2020-01-22 05:10 37.65 100.0 37.65 37.65 37.65 2.06 2.77 2.24 12.4 164.0 0.0 0.0 44.06
2020-01-22 05:15 37.47 100.0 37.47 37.47 37.47 1.16 2.77 1.7 18.8 129.5 0.0 0.0 44.06
2020-01-22 05:20 37.54 100.0 37.54 34.99 37.54 3.49 3.49 1.36 35.4 152.8 0.0 0.0 44.04
2020-01-22 05:25 37.96 100.0 37.96 37.96 37.96 2.95 3.67 2.51 48.6 154.2 0.0 0.0 44.02
2020-01-22 05:30 38.34 100.0 38.34 38.34 38.34 1.16 3.49 1.83 43.6 147.7 0.0 0.0 44.02
2020-01-22 05:35 38.46 100.0 38.46 35.66 38.46 3.85 4.03 2.59 47.9 164.6 0.0 0.0 44.01
2020-01-22 05:40 38.57 100.0 38.57 38.57 38.57 2.59 4.56 2.95 63.5 201.1 0.0 0.0 44.01
2020-01-22 05:45 39.31 100.0 39.31 39.31 39.31 1.88 5.64 3.53 36.1 137.6 0.0 0.0 44.01
2020-01-22 05:50 38.34 100.0 38.34 38.34 38.34 1.52 5.64 2.64 32.7 71.7 0.0 0.0 43.99
2020-01-22 05:55 38.08 100.0 38.08 34.72 38.08 4.38 5.28 3.31 29.6 236.4 0.0 0.0 43.99
2020-01-22 06:00 38.95 100.0 38.95 35.57 38.95 4.56 5.64 4.54 14.6 189.8 0.0 0.0 43.99
2020-01-22 06:05 39.36 100.0 39.36 39.36 39.36 1.7 4.38 2.46 38.5 162.3 0.0 0.0 43.97
2020-01-22 06:10 39.56 100.0 39.56 39.56 39.56 2.77 3.49 2.57 15.0 78.3 0.0 0.0 43.97
2020-01-22 06:15 40.28 99.9 40.25 37.93 40.28 3.67 4.03 3.27 9.5 72.3 0.0 0.0 43.97
2020-01-22 06:20 40.28 100.0 40.28 40.28 40.28 2.59 4.74 3.24 38.6 132.8 0.0 0.0 43.95
2020-01-22 06:25 41.99 99.9 41.96 39.9 41.99 3.67 4.21 3.31 22.1 178.2 0.0 0.0 43.93
2020-01-22 06:30 43.34 99.9 43.31 43.34 43.34 1.88 5.64 3.71 32.6 193.7 0.0 0.0 43.93
2020-01-22 06:35 43.84 99.9 43.82 41.15 43.84 4.74 4.74 2.84 26.7 212.2 0.0 0.0 43.93
2020-01-22 06:40 44.82 100.0 44.82 42.55 44.82 4.38 6.71 4.47 14.8 216.9 0.0 0.0 43.93
2020-01-22 06:45 44.82 98.0 44.29 44.82 44.82 2.59 4.21 3.22 13.3 224.4 0.0 0.0 43.92
2020-01-22 06:50 45.07 97.0 44.27 43.13 45.07 4.03 5.64 3.47 18.3 231.8 0.0 0.0 43.9
2020-01-22 06:55 44.87 96.6 43.96 44.87 44.87 2.42 3.85 2.24 31.8 249.9 0.0 0.0 43.9
2020-01-22 07:00 44.82 96.8 43.96 44.82 44.82 2.77 4.74 3.15 18.5 261.1 0.0 0.0 43.9
2020-01-22 07:05 44.87 96.7 43.99 44.87 44.87 0.98 2.95 2.01 26.7 264.8 0.0 0.0 43.9
2020-01-22 07:10 44.69 97.2 43.94 43.0 44.69 3.67 4.03 0.87 19.1 274.4 0.0 0.001 43.9
2020-01-22 07:15 45.05 96.6 44.14 45.05 45.05 0.81 4.21 1.59 22.2 214.8 0.0 0.003 43.9
2020-01-22 07:20 45.05 95.0 43.7 45.05 45.05 2.24 2.77 1.66 43.2 111.9 0.01 0.007 43.88
2020-01-22 07:25 45.79 92.5 43.74 45.79 45.79 2.24 4.21 2.59 40.4 333.2 0.0 0.019 43.88
2020-01-22 07:30 47.01 87.9 43.61 45.24 47.01 4.21 10.09 4.45 69.4 189.8 0.0 0.026 43.86
2020-01-22 07:35 46.94 89.5 44.01 46.94 46.94 1.34 5.82 3.13 27.6 271.0 0.0 0.033 43.88
2020-01-22 07:40 47.01 89.8 44.17 47.01 47.01 1.34 3.67 2.3 16.3 260.7 0.0 0.037 43.88
2020-01-22 07:45 47.43 86.5 43.6 47.43 47.43 2.42 5.64 3.33 43.4 267.6 0.0 0.04 43.88
2020-01-22 07:50 47.73 85.5 43.6 46.64 47.73 3.49 6.53 3.85 29.8 294.5 0.0 0.044 43.86
2020-01-22 07:55 47.91 84.9 43.59 47.91 47.91 1.7 3.13 1.88 45.0 287.3 0.0 0.048 43.83
2020-01-22 08:00 48.22 84.0 43.61 48.22 48.22 2.77 4.03 1.72 40.8 280.6 0.0 0.041 43.83
2020-01-22 08:05 48.11 84.6 43.69 48.11 48.11 2.77 3.13 2.46 20.6 354.6 0.0 0.058 43.84
2020-01-22 08:10 48.34 84.7 43.95 48.34 48.34 2.59 2.95 2.42 16.4 3.4 0.0 0.067 43.84
2020-01-22 08:15 48.65 82.5 43.56 46.23 48.65 5.64 5.64 4.3 10.7 351.7 0.0 0.066 43.83
2020-01-22 08:20 48.29 83.5 43.53 46.02 48.29 5.28 7.25 5.84 16.9 356.9 0.0 0.032 43.83
2020-01-22 08:25 48.29 81.8 42.99 45.51 48.29 6.17 9.22 6.73 12.1 345.5 0.0 0.031 43.83
2020-01-22 08:30 48.4 82.7 43.38 45.94 48.4 5.64 8.68 7.18 10.8 335.0 0.0 0.033 43.83
2020-01-22 08:35 48.58 81.6 43.21 46.05 48.58 5.82 12.24 7.11 14.0 316.1 0.0 0.045 43.83
2020-01-22 08:40 48.88 81.3 43.41 46.22 48.88 6.17 7.96 5.75 16.8 287.3 0.0 0.05 43.83
2020-01-22 08:45 49.26 78.54 42.87 46.09 49.26 7.43 9.4 7.05 20.8 278.6 0.0 0.059 43.83
2020-01-22 08:50 49.8 78.71 43.46 46.17 49.8 8.86 11.52 7.05 21.7 274.1 0.0 0.096 43.81
2020-01-22 08:55 50.16 76.26 42.98 50.16 50.16 7.96 10.98 7.2 12.6 275.3 0.0 0.095 43.84
2020-01-22 09:00 50.29 75.58 42.87 50.29 50.29 10.09 13.85 8.43 17.7 275.6 0.0 0.088 43.84
2020-01-22 09:05 50.23 75.75 42.87 50.23 50.23 8.48 13.49 10.02 14.9 284.5 0.0 0.073 43.86
2020-01-22 09:10 50.47 76.87 43.48 50.47 50.47 6.35 12.77 8.05 21.2 287.9 0.0 0.09 43.88
2020-01-22 09:15 51.21 75.61 43.77 51.21 51.21 7.78 10.98 7.4 16.6 292.7 0.0 0.112 43.88
2020-01-22 09:20 51.26 72.44 42.7 51.26 51.26 8.86 10.09 7.85 14.9 293.7 0.0 0.088 43.9
2020-01-22 09:25 51.62 71.87 42.84 51.62 51.62 11.88 12.06 9.04 13.1 303.2 0.0 0.122 43.92
2020-01-22 09:30 52.54 69.28 42.77 52.54 52.54 9.22 11.52 7.4 14.9 294.5 0.0 0.128 43.93
2020-01-22 09:35 52.29 69.39 42.57 52.29 52.29 7.96 14.03 9.8 17.0 303.2 0.0 0.13 43.95
2020-01-22 09:40 52.84 66.29 41.91 52.84 52.84 12.06 13.13 8.55 18.5 292.7 0.0 0.134 43.99
2020-01-22 09:45 53.15 65.99 42.08 53.15 53.15 11.7 12.59 9.31 15.9 300.5 0.0 0.138 43.99
2020-01-22 09:50 53.2 64.7 41.62 53.2 53.2 10.45 13.13 9.73 14.8 302.5 0.0 0.142 44.02
2020-01-22 09:55 53.33 63.54 41.27 53.33 53.33 10.27 13.31 10.04 15.4 304.9 0.0 0.146 44.06
2020-01-22 10:00 53.71 61.91 40.96 53.71 53.71 11.52 15.1 9.37 12.5 303.4 0.0 0.149 44.1
2020-01-22 10:05 54.19 60.35 40.76 54.19 54.19 7.61 13.67 8.63 14.8 289.3 0.0 0.153 44.11
2020-01-22 10:10 54.37 56.57 39.26 54.37 54.37 10.45 15.46 10.47 20.4 292.8 0.0 0.157 44.13
2020-01-22 10:15 54.43 58.0 39.96 54.43 54.43 11.7 15.46 10.4 16.0 297.1 0.0 0.16 44.17
2020-01-22 10:20 54.79 56.63 39.68 54.79 54.79 8.86 15.99 10.63 15.1 294.4 0.0 0.164 44.2
2020-01-22 10:25 54.72 59.15 40.73 54.72 54.72 7.43 16.53 11.32 17.4 284.8 0.0 0.168 44.24
2020-01-22 10:30 54.54 56.12 39.21 54.54 54.54 11.16 17.43 12.1 17.3 275.1 0.0 0.171 44.26
2020-01-22 10:35 54.72 60.74 41.42 54.72 54.72 5.64 13.67 10.11 17.0 284.1 0.0 0.174 44.31
2020-01-22 10:40 55.45 56.93 40.44 55.45 55.45 12.95 13.67 9.37 20.1 290.0 0.0 0.177 44.35
2020-01-22 10:45 54.95 58.09 40.49 54.95 54.95 11.88 15.46 12.04 19.8 295.2 0.0 0.18 44.38
2020-01-22 10:50 55.2 57.14 40.3 55.2 55.2 10.27 16.53 10.92 20.3 285.0 0.0 0.183 44.42
2020-01-22 10:55 55.33 56.56 40.15 55.33 55.33 12.77 16.53 11.3 16.4 276.9 0.0 0.185 44.46
2020-01-22 11:00 55.81 58.09 41.3 55.81 55.81 6.17 13.31 9.1 19.4 285.9 0.0 0.188 44.51
2020-01-22 11:05 56.25 50.55 38.12 56.25 56.25 12.06 17.43 11.23 18.1 286.9 0.0 0.19 44.55
2020-01-22 11:10 55.99 53.13 39.16 55.99 55.99 9.04 15.46 11.48 16.7 302.3 0.0 0.192 44.58
2020-01-22 11:15 56.17 52.28 38.92 56.17 56.17 9.4 13.67 11.21 17.7 294.4 0.0 0.194 44.65
2020-01-22 11:20 56.91 54.38 40.62 56.91 56.91 9.57 13.13 9.28 16.6 292.3 0.0 0.196 44.65
2020-01-22 11:25 56.73 49.63 38.1 56.73 56.73 12.95 17.07 11.77 18.5 278.4 0.0 0.198 44.71
2020-01-22 11:30 56.73 49.19 37.88 56.73 56.73 12.06 15.82 10.72 18.0 269.1 0.0 0.2 44.76
2020-01-22 11:35 57.4 49.05 38.42 57.4 57.4 12.06 13.49 9.71 21.2 286.1 0.0 0.202 44.8
2020-01-22 11:40 57.47 48.44 38.16 57.47 57.47 9.91 14.03 10.42 17.7 283.4 0.0 0.203 44.85
2020-01-22 11:45 57.83 48.47 38.51 57.83 57.83 9.91 13.49 9.1 13.7 278.6 0.0 0.205 44.91
2020-01-22 11:50 57.7 48.85 38.59 57.7 57.7 9.4 14.2 10.51 18.7 279.9 0.0 0.206 44.96
2020-01-22 11:55 58.26 46.5 37.85 58.26 58.26 9.73 12.95 9.35 18.0 292.2 0.0 0.207 45.0
2020-01-22 12:00 58.14 44.63 36.69 58.14 58.14 10.8 13.67 10.54 19.1 273.3 0.0 0.208 45.05
2020-01-22 12:05 58.57 45.99 37.84 58.57 58.57 11.88 11.88 8.08 21.2 278.2 0.0 0.2 45.09
2020-01-22 12:10 58.26 48.4 38.87 58.26 58.26 4.56 13.49 9.06 20.0 295.8 0.0 0.195 45.14
2020-01-22 12:15 58.44 43.75 36.46 58.44 58.44 14.38 14.38 10.04 24.7 271.6 0.0 0.209 45.19
2020-01-22 12:20 58.8 47.01 38.62 58.8 58.8 11.88 11.88 8.77 21.3 277.5 0.0 0.209 45.27
2020-01-22 12:25 58.44 45.14 37.25 58.44 58.44 6.35 13.67 9.62 14.8 283.4 0.0 0.209 45.3
2020-01-22 12:30 59.18 45.45 38.1 59.18 59.18 9.91 13.85 8.9 27.1 287.3 0.0 0.209 45.37
2020-01-22 12:35 58.93 46.5 38.45 58.93 58.93 7.61 13.67 9.87 18.4 286.1 0.0 0.209 45.41
2020-01-22 12:40 58.87 43.21 36.54 58.87 58.87 10.98 13.67 9.62 24.8 281.8 0.0 0.208 45.48
2020-01-22 12:45 59.23 41.17 35.64 59.23 59.23 11.88 14.2 10.16 17.8 282.2 0.0 0.208 45.52
2020-01-22 12:50 59.05 42.66 36.38 59.05 59.05 8.48 15.28 10.13 14.0 272.4 0.0 0.208 45.59
2020-01-22 12:55 59.05 42.87 36.5 59.05 59.05 11.52 15.46 11.03 19.4 263.9 0.0 0.208 45.63
2020-01-22 13:00 59.54 42.87 36.94 59.54 59.54 7.96 14.92 10.27 16.2 280.8 0.0 0.208 45.7
2020-01-22 13:05 59.9 40.69 35.94 59.9 59.9 10.45 13.67 9.13 28.0 261.7 0.0 0.209 45.75
2020-01-22 13:10 59.77 40.29 35.58 59.77 59.77 11.52 13.67 8.75 21.3 281.5 0.0 0.206 45.81
2020-01-22 13:15 60.33 39.27 35.43 60.33 60.33 12.77 14.03 9.02 18.7 286.7 0.0 0.204 45.88
2020-01-22 13:20 60.03 40.15 35.72 60.03 60.03 9.04 11.88 9.44 27.8 283.2 0.0 0.201 45.91
2020-01-22 13:25 59.54 41.2 35.93 59.54 59.54 10.27 15.46 9.66 19.4 296.3 0.0 0.199 45.99
2020-01-22 13:30 59.9 39.95 35.48 59.9 59.9 6.89 11.52 7.54 24.6 266.2 0.0 0.197 46.02
2020-01-22 13:35 60.33 41.03 36.54 60.33 60.33 6.53 14.03 8.48 23.9 270.8 0.0 0.195 46.09
2020-01-22 13:40 60.51 37.43 34.39 60.51 60.51 8.86 13.31 8.43 14.4 276.5 0.0 0.193 46.11
2020-01-22 13:45 59.9 38.86 34.78 59.9 59.9 6.17 13.85 8.9 21.0 264.2 0.0 0.191 46.18
2020-01-22 13:50 60.64 41.03 36.82 60.64 60.64 7.07 11.16 7.52 24.5 291.3 0.0 0.166 46.22
2020-01-22 13:55 60.21 39.54 35.49 60.21 60.21 5.28 10.27 7.87 21.1 268.8 0.0 0.135 46.29
2020-01-22 14:00 60.08 38.35 34.61 60.08 60.08 10.8 10.8 8.1 17.4 295.6 0.0 0.17 46.33
2020-01-22 14:05 60.28 38.45 34.86 60.28 60.28 10.63 12.24 9.46 17.6 290.1 0.0 0.184 46.38
2020-01-22 14:10 61.0 40.01 36.5 61.0 61.0 6.35 14.2 7.7 15.5 278.1 0.0 0.179 46.44
2020-01-22 14:15 60.89 37.94 35.07 60.89 60.89 9.91 10.98 8.48 20.1 280.6 0.0 0.175 46.47
2020-01-22 14:20 60.33 39.1 35.33 60.33 60.33 12.24 12.24 9.87 23.1 292.4 0.0 0.171 46.54
2020-01-22 14:25 60.51 37.5 34.44 60.51 60.51 10.45 13.13 10.02 23.4 265.7 0.0 0.168 46.58
2020-01-22 14:30 61.12 37.84 35.21 61.12 61.12 9.4 10.8 8.52 18.9 273.5 0.0 0.165 46.62
2020-01-22 14:35 61.81 37.02 35.27 61.81 61.81 8.68 11.52 8.05 20.2 277.0 0.0 0.161 46.67
2020-01-22 14:40 61.43 37.64 35.35 61.43 61.43 5.64 12.95 8.86 19.6 274.8 0.0 0.157 46.71
2020-01-22 14:45 61.5 35.63 34.03 61.5 61.5 9.91 12.95 8.46 24.1 272.8 0.0 0.154 46.76
2020-01-22 14:50 61.56 36.14 34.44 61.56 61.56 9.57 13.85 8.48 19.1 266.6 0.0 0.151 46.8
2020-01-22 14:55 61.25 36.24 34.23 61.25 61.25 9.57 10.09 8.12 21.6 240.6 0.0 0.147 46.83
2020-01-22 15:00 61.2 36.85 34.61 61.2 61.2 4.21 12.59 7.76 24.8 249.6 0.0 0.143 46.87
2020-01-22 15:05 62.17 35.87 34.79 62.17 62.17 12.77 12.77 8.14 38.6 279.4 0.0 0.139 46.9
2020-01-22 15:10 61.74 36.96 35.16 61.74 61.74 9.4 11.16 9.35 12.4 306.2 0.0 0.134 46.94
2020-01-22 15:15 61.56 36.96 35.0 61.56 61.56 9.22 12.06 7.99 19.1 311.1 0.0 0.118 46.98
2020-01-22 15:20 61.92 36.79 35.2 61.92 61.92 7.07 10.27 7.34 16.9 278.1 0.0 0.121 47.01
2020-01-22 15:25 61.99 37.91 36.03 61.99 61.99 9.4 10.63 7.94 19.7 295.7 0.0 0.11 47.01
2020-01-22 15:30 61.86 36.28 34.81 61.86 61.86 11.52 11.52 8.21 15.0 297.4 0.0 0.128 47.05
2020-01-22 15:35 62.35 36.82 35.61 62.35 62.35 6.0 9.91 6.67 22.8 265.9 0.0 0.083 47.08
2020-01-22 15:40 62.65 36.07 35.36 62.65 62.65 13.49 13.49 6.78 20.4 285.5 0.0 0.037 47.08
2020-01-22 15:45 62.78 35.16 34.83 62.78 62.78 4.74 10.98 6.67 15.8 296.5 0.0 0.079 47.12
2020-01-22 15:50 61.92 37.43 35.64 61.92 61.92 7.43 12.95 7.99 13.2 301.5 0.0 0.085 47.16
2020-01-22 15:55 61.81 36.48 34.9 61.81 61.81 4.03 9.4 6.31 14.5 329.8 0.0 0.035 47.16
2020-01-22 16:00 61.5 39.44 36.59 61.5 61.5 7.61 10.09 8.12 11.9 355.1 0.0 0.066 47.19
2020-01-22 16:05 61.0 39.06 35.9 61.0 61.0 6.35 9.57 7.05 11.2 356.8 0.0 0.053 47.19
2020-01-22 16:10 60.89 38.08 35.16 60.89 60.89 10.63 10.63 8.21 9.8 4.2 0.0 0.055 47.23
2020-01-22 16:15 60.15 39.47 35.4 60.15 60.15 6.53 9.91 7.65 18.7 348.4 0.0 0.022 47.23
2020-01-22 16:20 59.77 39.44 35.04 59.77 59.77 4.38 6.71 5.06 11.1 346.4 0.0 0.021 47.25
2020-01-22 16:25 59.77 41.27 36.19 59.77 59.77 4.38 7.43 5.03 12.6 346.3 0.0 0.029 47.26
2020-01-22 16:30 60.03 41.71 36.68 60.03 60.03 3.67 5.46 3.76 7.9 337.1 0.0 0.052 47.26
2020-01-22 16:35 60.21 39.95 35.76 60.21 60.21 3.49 6.17 3.96 12.1 343.6 0.0 0.033 47.28
2020-01-22 16:40 60.03 40.93 36.21 60.03 60.03 3.13 3.49 2.73 17.0 350.9 0.0 0.022 47.3

Data is courtesy of the NM Climate Center. DO NOT USE IN LEGAL PROCEEDINGS.